Time,TemperatureF,DewpointF,PressureIn,WindDirection,WindDirectionDegrees,WindSpeedMPH,WindSpeedGustMPH,Humidity,HourlyPrecipIn,Conditions,Clouds,dailyrainin,SoftwareType,DateUTC
2013-02-23 00:00:00,32.2,30.1,29.63,SW,216,8.3,8.7,92,0.00,,,0.00,VWS V14.00,2013-02-23 05:00:00,
2013-02-23 00:02:00,32.2,30.1,29.63,SSW,212,5.8,8.3,92,0.00,,,0.00,VWS V14.00,2013-02-23 05:02:00,
2013-02-23 00:04:00,32.2,30.1,29.63,SSW,206,6.3,6.3,92,0.00,,,0.00,VWS V14.00,2013-02-23 05:04:00,
2013-02-23 00:10:00,32.2,29.9,29.63,SW,217,5.8,5.8,91,0.00,,,0.00,VWS V14.00,2013-02-23 05:10:00,
2013-02-23 00:15:00,32.0,29.4,29.63,SW,234,8.1,8.7,90,0.00,,,0.00,VWS V14.00,2013-02-23 05:15:00,
2013-02-23 00:17:00,32.0,29.4,29.63,SW,234,8.1,8.1,90,0.00,,,0.00,VWS V14.00,2013-02-23 05:17:00,
2013-02-23 00:22:00,32.0,29.4,29.63,SSW,194,8.3,8.3,90,0.00,,,0.00,VWS V14.00,2013-02-23 05:22:00,
2013-02-23 00:27:00,31.8,29.2,29.63,SW,227,6.7,6.7,90,0.00,,,0.00,VWS V14.00,2013-02-23 05:27:00,
2013-02-23 00:32:00,31.8,29.2,29.63,SW,214,8.3,8.3,90,0.00,,,0.00,VWS V14.00,2013-02-23 05:32:00,
2013-02-23 00:38:00,31.8,29.0,29.63,SW,235,5.8,5.8,89,0.00,,,0.00,VWS V14.00,2013-02-23 05:38:00,
2013-02-23 00:43:00,31.8,29.0,29.63,SSW,199,4.0,7.6,89,0.00,,,0.00,VWS V14.00,2013-02-23 05:43:00,
2013-02-23 00:48:00,31.6,28.8,29.63,SW,215,5.4,5.4,89,0.00,,,0.00,VWS V14.00,2013-02-23 05:48:00,
2013-02-23 00:53:00,31.5,28.6,29.63,SSW,206,6.3,8.3,89,0.00,,,0.00,VWS V14.00,2013-02-23 05:53:00,
2013-02-23 00:59:00,31.5,28.6,29.63,SSW,206,8.7,8.7,89,0.00,,,0.00,VWS V14.00,2013-02-23 05:59:00,
2013-02-23 01:04:00,31.5,28.6,29.63,SSW,195,8.1,8.1,89,0.00,,,0.00,VWS V14.00,2013-02-23 06:04:00,
2013-02-23 01:10:00,31.5,28.9,29.63,SSW,196,8.1,8.1,90,0.00,,,0.00,VWS V14.00,2013-02-23 06:10:00,
2013-02-23 01:15:00,31.3,28.7,29.63,South,179,6.3,6.3,90,0.00,,,0.00,VWS V14.00,2013-02-23 06:15:00,
2013-02-23 01:21:00,31.3,28.7,29.63,SSW,208,6.7,6.7,90,0.00,,,0.00,VWS V14.00,2013-02-23 06:21:00,
2013-02-23 01:27:00,31.3,28.7,29.63,SSW,202,6.3,6.3,90,0.00,,,0.00,VWS V14.00,2013-02-23 06:27:00,
2013-02-23 01:32:00,31.3,28.4,29.63,SSW,212,5.4,8.7,89,0.00,,,0.00,VWS V14.00,2013-02-23 06:32:00,
2013-02-23 01:38:00,31.3,28.4,29.63,SW,222,5.8,6.3,89,0.00,,,0.00,VWS V14.00,2013-02-23 06:38:00,
2013-02-23 01:43:00,31.3,28.4,29.63,SSW,202,5.4,5.4,89,0.00,,,0.00,VWS V14.00,2013-02-23 06:43:00,
2013-02-23 01:49:00,31.3,28.4,29.63,SW,221,5.4,5.4,89,0.00,,,0.00,VWS V14.00,2013-02-23 06:49:00,
2013-02-23 01:54:00,31.1,28.2,29.63,SSW,197,6.3,6.3,89,0.00,,,0.00,VWS V14.00,2013-02-23 06:54:00,
2013-02-23 01:59:00,31.1,28.2,29.63,SSW,213,8.1,8.7,89,0.00,,,0.00,VWS V14.00,2013-02-23 06:59:00,
2013-02-23 02:05:00,31.1,28.2,29.63,SSW,209,6.3,10.1,89,0.00,,,0.00,VWS V14.00,2013-02-23 07:05:00,
2013-02-23 02:10:00,31.1,28.2,29.63,SSW,207,5.8,5.8,89,0.00,,,0.00,VWS V14.00,2013-02-23 07:10:00,
2013-02-23 02:16:00,31.1,28.0,29.63,SW,218,5.8,5.8,88,0.00,,,0.00,VWS V14.00,2013-02-23 07:16:00,
2013-02-23 02:21:00,31.1,28.0,29.63,SSW,204,6.3,6.3,88,0.00,,,0.00,VWS V14.00,2013-02-23 07:21:00,
2013-02-23 02:26:00,31.1,28.0,29.63,SSW,196,5.4,8.1,88,0.00,,,0.00,VWS V14.00,2013-02-23 07:26:00,
2013-02-23 02:31:00,31.1,28.0,29.63,SSW,194,7.6,7.6,88,0.00,,,0.00,VWS V14.00,2013-02-23 07:31:00,
2013-02-23 02:37:00,31.1,28.0,29.63,SSW,196,4.0,4.0,88,0.00,,,0.00,VWS V14.00,2013-02-23 07:37:00,
2013-02-23 02:42:00,31.1,28.0,29.63,SSW,204,5.4,5.4,88,0.00,,,0.00,VWS V14.00,2013-02-23 07:42:00,
2013-02-23 02:47:00,30.9,27.8,29.63,SSW,192,5.4,5.4,88,0.00,,,0.00,VWS V14.00,2013-02-23 07:47:00,
2013-02-23 02:52:00,30.9,27.8,29.63,SW,224,6.3,6.3,88,0.00,,,0.00,VWS V14.00,2013-02-23 07:52:00,
2013-02-23 02:58:00,30.9,27.8,29.63,SW,229,8.1,8.1,88,0.00,,,0.00,VWS V14.00,2013-02-23 07:58:00,
2013-02-23 03:03:00,30.9,27.8,29.63,SW,222,2.7,4.0,88,0.00,,,0.00,VWS V14.00,2013-02-23 08:03:00,
2013-02-23 03:09:00,30.9,27.8,29.63,SSW,198,8.3,11.0,88,0.00,,,0.00,VWS V14.00,2013-02-23 08:09:00,
2013-02-23 03:14:00,30.9,27.8,29.60,SSW,203,6.3,6.3,88,0.00,,,0.00,VWS V14.00,2013-02-23 08:14:00,
2013-02-23 03:20:00,30.9,27.8,29.60,SSW,206,5.4,5.4,88,0.00,,,0.00,VWS V14.00,2013-02-23 08:20:00,
2013-02-23 03:25:00,30.7,27.6,29.60,SSW,212,10.1,10.1,88,0.00,,,0.00,VWS V14.00,2013-02-23 08:25:00,
2013-02-23 03:30:00,30.7,27.6,29.60,SSW,208,7.2,7.2,88,0.00,,,0.00,VWS V14.00,2013-02-23 08:30:00,
2013-02-23 03:35:00,30.7,27.6,29.60,South,183,5.4,5.8,88,0.00,,,0.00,VWS V14.00,2013-02-23 08:35:00,
2013-02-23 03:41:00,30.7,27.6,29.60,SSW,213,5.4,5.4,88,0.00,,,0.00,VWS V14.00,2013-02-23 08:41:00,
2013-02-23 03:47:00,30.7,27.6,29.60,SW,216,8.1,8.1,88,0.00,,,0.00,VWS V14.00,2013-02-23 08:47:00,
2013-02-23 03:52:00,30.7,27.6,29.60,SSW,198,5.8,5.8,88,0.00,,,0.00,VWS V14.00,2013-02-23 08:52:00,
2013-02-23 03:57:00,30.7,27.6,29.60,SSW,194,5.4,5.4,88,0.00,,,0.00,VWS V14.00,2013-02-23 08:57:00,
2013-02-23 04:02:00,30.7,27.6,29.60,SW,221,4.0,4.0,88,0.00,,,0.00,VWS V14.00,2013-02-23 09:02:00,
2013-02-23 04:08:00,30.6,27.7,29.60,SW,223,3.1,8.1,89,0.00,,,0.00,VWS V14.00,2013-02-23 09:08:00,
2013-02-23 04:13:00,30.6,27.7,29.60,SW,224,4.0,4.0,89,0.00,,,0.00,VWS V14.00,2013-02-23 09:13:00,
2013-02-23 04:19:00,30.6,27.7,29.60,SSW,203,6.3,6.3,89,0.00,,,0.00,VWS V14.00,2013-02-23 09:19:00,
2013-02-23 04:25:00,30.6,27.7,29.60,SSW,208,3.6,3.6,89,0.00,,,0.00,VWS V14.00,2013-02-23 09:25:00,
2013-02-23 04:30:00,30.6,27.7,29.60,SSW,209,5.4,5.4,89,0.00,,,0.00,VWS V14.00,2013-02-23 09:30:00,
2013-02-23 04:36:00,30.6,27.7,29.60,SW,222,5.8,5.8,89,0.00,,,0.00,VWS V14.00,2013-02-23 09:36:00,
2013-02-23 04:41:00,30.6,27.7,29.60,SW,223,4.0,4.0,89,0.00,,,0.00,VWS V14.00,2013-02-23 09:41:00,
2013-02-23 04:46:00,30.6,27.7,29.60,SW,214,5.8,5.8,89,0.00,,,0.00,VWS V14.00,2013-02-23 09:46:00,
2013-02-23 04:51:00,30.6,27.7,29.60,SSW,206,6.3,6.3,89,0.00,,,0.00,VWS V14.00,2013-02-23 09:51:00,
2013-02-23 04:56:00,30.6,27.7,29.60,SSW,213,8.1,8.1,89,0.00,,,0.00,VWS V14.00,2013-02-23 09:56:00,
2013-02-23 05:01:00,30.6,27.7,29.60,SSW,203,3.1,3.1,89,0.00,,,0.00,VWS V14.00,2013-02-23 10:01:00,
2013-02-23 05:07:00,30.6,27.7,29.60,SSW,208,5.4,5.4,89,0.00,,,0.00,VWS V14.00,2013-02-23 10:07:00,
2013-02-23 05:12:00,30.4,27.5,29.60,SW,219,5.4,5.4,89,0.00,,,0.00,VWS V14.00,2013-02-23 10:12:00,
2013-02-23 05:17:00,30.4,27.5,29.60,SW,229,3.6,3.6,89,0.00,,,0.00,VWS V14.00,2013-02-23 10:17:00,
2013-02-23 05:22:00,30.4,27.5,29.60,SW,221,3.6,3.6,89,0.00,,,0.00,VWS V14.00,2013-02-23 10:22:00,
2013-02-23 05:27:00,30.4,27.5,29.60,SW,224,3.6,3.6,89,0.00,,,0.00,VWS V14.00,2013-02-23 10:27:00,
2013-02-23 05:33:00,30.4,27.5,29.60,WSW,245,0.0,0.0,89,0.00,,,0.00,VWS V14.00,2013-02-23 10:33:00,
2013-02-23 05:38:00,30.4,27.5,29.60,SW,215,3.1,3.6,89,0.00,,,0.00,VWS V14.00,2013-02-23 10:38:00,
2013-02-23 05:43:00,30.4,27.5,29.60,SW,230,5.4,5.4,89,0.00,,,0.00,VWS V14.00,2013-02-23 10:43:00,
2013-02-23 05:48:00,30.4,27.5,29.60,SSW,206,3.6,3.6,89,0.00,,,0.00,VWS V14.00,2013-02-23 10:48:00,
2013-02-23 05:54:00,30.4,27.5,29.60,WSW,248,3.6,3.6,89,0.00,,,0.00,VWS V14.00,2013-02-23 10:54:00,
2013-02-23 06:00:00,30.2,27.6,29.60,WSW,252,0.0,5.8,90,0.00,,,0.00,VWS V14.00,2013-02-23 11:00:00,
2013-02-23 06:05:00,30.2,27.6,29.60,WSW,244,2.7,5.8,90,0.00,,,0.00,VWS V14.00,2013-02-23 11:05:00,
2013-02-23 06:11:00,30.2,27.6,29.63,SW,230,2.7,2.7,90,0.00,,,0.00,VWS V14.00,2013-02-23 11:11:00,
2013-02-23 06:17:00,30.2,27.6,29.63,WSW,252,7.2,7.2,90,0.00,,,0.00,VWS V14.00,2013-02-23 11:17:00,
2013-02-23 06:22:00,30.2,27.6,29.63,North,6,3.1,3.1,90,0.00,,,0.00,VWS V14.00,2013-02-23 11:22:00,
2013-02-23 06:27:00,30.2,27.6,29.63,WSW,250,4.9,4.9,90,0.00,,,0.00,VWS V14.00,2013-02-23 11:27:00,
2013-02-23 06:32:00,30.2,27.6,29.63,WSW,244,0.0,3.1,90,0.00,,,0.00,VWS V14.00,2013-02-23 11:32:00,
2013-02-23 06:37:00,30.2,27.6,29.63,WSW,239,4.9,4.9,90,0.00,,,0.00,VWS V14.00,2013-02-23 11:37:00,
2013-02-23 06:43:00,30.2,27.4,29.63,SW,229,6.3,6.3,89,0.00,,,0.00,VWS V14.00,2013-02-23 11:43:00,
2013-02-23 06:49:00,30.2,27.4,29.63,SW,226,3.6,4.9,89,0.00,,,0.00,VWS V14.00,2013-02-23 11:49:00,
2013-02-23 06:54:00,30.0,27.2,29.63,West,260,2.7,2.7,89,0.00,,,0.00,VWS V14.00,2013-02-23 11:54:00,
2013-02-23 06:59:00,30.0,26.9,29.63,SW,222,4.0,4.0,88,0.00,,,0.00,VWS V14.00,2013-02-23 11:59:00,
2013-02-23 07:04:00,30.0,26.9,29.63,SSW,212,3.6,3.6,88,0.00,,,0.00,VWS V14.00,2013-02-23 12:04:00,
2013-02-23 07:10:00,30.0,26.9,29.63,SW,216,4.0,4.0,88,0.00,,,0.00,VWS V14.00,2013-02-23 12:10:00,
2013-02-23 07:15:00,29.8,26.5,29.63,SW,219,4.0,4.0,87,0.00,,,0.00,VWS V14.00,2013-02-23 12:15:00,
2013-02-23 07:20:00,29.8,26.5,29.63,SSW,201,4.9,4.9,87,0.00,,,0.00,VWS V14.00,2013-02-23 12:20:00,
2013-02-23 07:25:00,29.8,26.2,29.63,SSW,210,3.1,6.3,86,0.00,,,0.00,VWS V14.00,2013-02-23 12:25:00,
2013-02-23 07:30:00,29.8,26.2,29.63,SSW,206,4.0,4.0,86,0.00,,,0.00,VWS V14.00,2013-02-23 12:30:00,
2013-02-23 07:35:00,29.7,25.7,29.63,SW,224,5.8,5.8,85,0.00,,,0.00,VWS V14.00,2013-02-23 12:35:00,
2013-02-23 07:40:00,29.8,25.9,29.63,SW,231,5.8,5.8,85,0.00,,,0.00,VWS V14.00,2013-02-23 12:40:00,
2013-02-23 07:46:00,29.7,25.4,29.63,SSW,205,2.7,2.7,84,0.00,,,0.00,VWS V14.00,2013-02-23 12:46:00,
2013-02-23 07:51:00,29.7,25.4,29.63,SW,215,5.8,5.8,84,0.00,,,0.00,VWS V14.00,2013-02-23 12:51:00,
2013-02-23 07:56:00,29.7,25.4,29.63,WSW,256,5.4,5.4,84,0.00,,,0.00,VWS V14.00,2013-02-23 12:56:00,
2013-02-23 08:01:00,29.7,24.6,29.63,SW,224,2.7,2.7,81,0.00,,,0.00,VWS V14.00,2013-02-23 13:01:00,
2013-02-23 08:06:00,29.7,24.3,29.63,SSW,208,4.0,4.5,80,0.00,,,0.00,VWS V14.00,2013-02-23 13:06:00,
2013-02-23 08:11:00,29.7,24.3,29.66,SSW,207,3.6,4.0,80,0.00,,,0.00,VWS V14.00,2013-02-23 13:11:00,
2013-02-23 08:17:00,29.7,24.3,29.66,SW,218,3.1,3.1,80,0.00,,,0.00,VWS V14.00,2013-02-23 13:17:00,
2013-02-23 08:22:00,29.7,24.3,29.66,SSW,208,6.3,6.3,80,0.00,,,0.00,VWS V14.00,2013-02-23 13:22:00,
2013-02-23 08:28:00,29.7,24.3,29.66,SW,216,3.1,3.1,80,0.00,,,0.00,VWS V14.00,2013-02-23 13:28:00,
2013-02-23 08:33:00,29.7,24.3,29.66,SW,231,3.6,5.8,80,0.00,,,0.00,VWS V14.00,2013-02-23 13:33:00,
2013-02-23 08:39:00,29.7,24.3,29.66,SW,219,5.4,5.8,80,0.00,,,0.00,VWS V14.00,2013-02-23 13:39:00,
2013-02-23 08:44:00,29.5,24.4,29.66,SW,214,5.4,5.4,81,0.00,,,0.00,VWS V14.00,2013-02-23 13:44:00,
2013-02-23 08:50:00,29.5,24.4,29.66,SSW,211,4.0,4.0,81,0.00,,,0.00,VWS V14.00,2013-02-23 13:50:00,
2013-02-23 08:55:00,29.5,24.7,29.66,SW,226,3.6,5.8,82,0.00,,,0.00,VWS V14.00,2013-02-23 13:55:00,
2013-02-23 09:00:00,29.5,25.0,29.66,SSW,201,6.3,7.6,83,0.00,,,0.00,VWS V14.00,2013-02-23 14:00:00,
2013-02-23 09:05:00,29.5,25.0,29.66,SW,227,4.0,4.0,83,0.00,,,0.00,VWS V14.00,2013-02-23 14:05:00,
2013-02-23 09:10:00,29.5,25.0,29.66,SW,236,3.1,3.1,83,0.00,,,0.00,VWS V14.00,2013-02-23 14:10:00,
2013-02-23 09:15:00,29.7,25.4,29.66,SSW,210,5.4,5.4,84,0.00,,,0.00,VWS V14.00,2013-02-23 14:15:00,
2013-02-23 09:21:00,29.7,25.4,29.66,SW,231,2.7,2.7,84,0.00,,,0.00,VWS V14.00,2013-02-23 14:21:00,
2013-02-23 09:27:00,30.0,26.1,29.66,SSW,196,3.6,4.0,85,0.00,,,0.00,VWS V14.00,2013-02-23 14:27:00,
2013-02-23 09:32:00,30.0,26.1,29.66,WSW,255,2.7,2.7,85,0.00,,,0.00,VWS V14.00,2013-02-23 14:32:00,
2013-02-23 09:37:00,30.6,26.3,29.66,SW,218,3.1,6.3,84,0.00,,,0.00,VWS V14.00,2013-02-23 14:37:00,
2013-02-23 09:42:00,30.7,26.5,29.66,SW,233,3.1,3.1,84,0.00,,,0.00,VWS V14.00,2013-02-23 14:42:00,
2013-02-23 09:48:00,30.9,26.4,29.66,WSW,255,7.6,7.6,83,0.00,,,0.00,VWS V14.00,2013-02-23 14:48:00,
2013-02-23 09:53:00,30.9,25.8,29.66,WSW,246,3.1,4.9,81,0.00,,,0.00,VWS V14.00,2013-02-23 14:53:00,
2013-02-23 09:59:00,30.9,25.5,29.66,SW,232,2.2,2.2,80,0.00,,,0.00,VWS V14.00,2013-02-23 14:59:00,
2013-02-23 10:04:00,31.1,25.4,29.66,WSW,246,5.8,5.8,79,0.00,,,0.00,VWS V14.00,2013-02-23 15:04:00,
2013-02-23 10:10:00,31.1,25.4,29.66,SSW,213,3.6,3.6,79,0.00,,,0.00,VWS V14.00,2013-02-23 15:10:00,
2013-02-23 10:15:00,31.3,25.5,29.66,WSW,247,3.6,5.8,79,0.00,,,0.00,VWS V14.00,2013-02-23 15:15:00,
2013-02-23 10:20:00,31.3,25.2,29.66,SW,236,8.3,8.3,78,0.00,,,0.00,VWS V14.00,2013-02-23 15:20:00,
2013-02-23 10:25:00,31.3,24.9,29.66,SW,229,4.9,5.8,77,0.00,,,0.00,VWS V14.00,2013-02-23 15:25:00,
2013-02-23 10:30:00,31.6,25.3,29.66,SW,214,3.6,3.6,77,0.00,,,0.00,VWS V14.00,2013-02-23 15:30:00,
2013-02-23 10:36:00,31.6,25.0,29.66,SW,226,5.4,7.6,76,0.00,,,0.00,VWS V14.00,2013-02-23 15:36:00,
2013-02-23 10:41:00,31.8,24.5,29.66,WSW,254,5.4,5.4,74,0.00,,,0.00,VWS V14.00,2013-02-23 15:41:00,
2013-02-23 10:47:00,32.0,24.0,29.66,SW,235,11.0,11.0,72,0.00,,,0.00,VWS V14.00,2013-02-23 15:47:00,
2013-02-23 10:52:00,32.0,24.0,29.66,West,263,4.9,6.3,72,0.00,,,0.00,VWS V14.00,2013-02-23 15:52:00,
2013-02-23 10:57:00,32.2,23.2,29.66,SSE,163,4.9,4.9,69,0.00,,,0.00,VWS V14.00,2013-02-23 15:57:00,
2013-02-23 11:02:00,32.2,22.8,29.66,SW,226,5.4,5.4,68,0.00,,,0.00,VWS V14.00,2013-02-23 16:02:00,
2013-02-23 11:08:00,32.4,22.6,29.66,SW,219,8.1,8.3,67,0.00,,,0.00,VWS V14.00,2013-02-23 16:08:00,
2013-02-23 11:13:00,32.4,21.9,29.66,West,271,6.3,6.3,65,0.00,,,0.00,VWS V14.00,2013-02-23 16:13:00,
2013-02-23 11:19:00,32.5,21.7,29.66,SSW,206,3.1,3.1,64,0.00,,,0.00,VWS V14.00,2013-02-23 16:19:00,
2013-02-23 11:24:00,32.7,21.1,29.66,SSW,212,6.7,6.7,62,0.00,,,0.00,VWS V14.00,2013-02-23 16:24:00,
2013-02-23 11:30:00,32.5,20.6,29.66,SSW,198,8.3,8.3,61,0.00,,,0.00,VWS V14.00,2013-02-23 16:30:00,
2013-02-23 11:35:00,32.4,20.0,29.66,SW,219,4.9,11.0,60,0.00,,,0.00,VWS V14.00,2013-02-23 16:35:00,
2013-02-23 11:41:00,32.4,20.4,29.66,WSW,237,5.8,5.8,61,0.00,,,0.00,VWS V14.00,2013-02-23 16:41:00,
2013-02-23 11:46:00,32.2,20.3,29.66,SSW,210,6.3,6.3,61,0.00,,,0.00,VWS V14.00,2013-02-23 16:46:00,
2013-02-23 11:51:00,32.0,20.1,29.66,SSW,212,9.2,12.8,61,0.00,,,0.00,VWS V14.00,2013-02-23 16:51:00,
2013-02-23 11:56:00,31.6,20.1,29.66,SW,224,5.8,11.9,62,0.00,,,0.00,VWS V14.00,2013-02-23 16:56:00,
2013-02-23 12:01:00,31.5,20.3,29.66,SSW,212,8.3,8.3,63,0.00,,,0.00,VWS V14.00,2013-02-23 17:01:00,
2013-02-23 12:07:00,31.5,20.3,29.66,SSW,212,11.0,11.0,63,0.00,,,0.00,VWS V14.00,2013-02-23 17:07:00,
2013-02-23 12:12:00,31.5,20.3,29.66,SW,219,5.8,5.8,63,0.00,,,0.00,VWS V14.00,2013-02-23 17:12:00,
2013-02-23 12:17:00,31.5,21.4,29.66,SW,233,6.3,11.0,66,0.00,,,0.00,VWS V14.00,2013-02-23 17:17:00,
2013-02-23 12:22:00,31.8,22.5,29.66,West,264,4.0,4.0,68,0.00,,,0.00,VWS V14.00,2013-02-23 17:22:00,
2013-02-23 12:27:00,32.2,23.2,29.66,SSW,197,4.0,4.0,69,0.00,,,0.00,VWS V14.00,2013-02-23 17:27:00,
2013-02-23 12:33:00,32.4,23.7,29.66,SSW,204,9.6,9.6,70,0.00,,,0.00,VWS V14.00,2013-02-23 17:33:00,
2013-02-23 12:38:00,32.4,23.7,29.66,SW,223,5.4,8.1,70,0.00,,,0.00,VWS V14.00,2013-02-23 17:38:00,
2013-02-23 12:43:00,32.0,23.3,29.66,SSW,212,5.8,5.8,70,0.00,,,0.00,VWS V14.00,2013-02-23 17:43:00,
2013-02-23 12:48:00,31.6,23.3,29.66,SW,224,2.7,2.7,71,0.00,,,0.00,VWS V14.00,2013-02-23 17:48:00,
2013-02-23 12:54:00,31.1,22.8,29.66,SSW,209,5.8,12.3,71,0.00,,,0.00,VWS V14.00,2013-02-23 17:54:00,
2013-02-23 12:59:00,30.9,22.6,29.66,SW,217,3.6,6.7,71,0.00,,,0.00,VWS V14.00,2013-02-23 17:59:00,
2013-02-23 13:04:00,31.1,23.1,29.66,SW,227,5.8,5.8,72,0.00,,,0.00,VWS V14.00,2013-02-23 18:04:00,
2013-02-23 13:09:00,31.3,23.3,29.66,SW,218,7.6,7.6,72,0.00,,,0.00,VWS V14.00,2013-02-23 18:09:00,
2013-02-23 13:15:00,32.0,24.3,29.66,SW,220,4.0,4.0,73,0.00,,,0.00,VWS V14.00,2013-02-23 18:15:00,
2013-02-23 13:21:00,32.4,24.7,29.66,SW,235,5.4,11.9,73,0.00,,,0.00,VWS V14.00,2013-02-23 18:21:00,
2013-02-23 13:26:00,32.4,24.4,29.66,SSW,203,5.4,6.3,72,0.00,,,0.00,VWS V14.00,2013-02-23 18:26:00,
2013-02-23 13:32:00,32.5,24.2,29.66,SSW,205,9.6,9.6,71,0.00,,,0.00,VWS V14.00,2013-02-23 18:32:00,
2013-02-23 13:38:00,32.4,23.7,29.66,SW,216,5.8,7.6,70,0.00,,,0.00,VWS V14.00,2013-02-23 18:38:00,
2013-02-23 13:43:00,32.2,23.5,29.66,SW,236,8.3,8.3,70,0.00,,,0.00,VWS V14.00,2013-02-23 18:43:00,
2013-02-23 13:48:00,32.2,23.2,29.66,SW,223,5.8,10.5,69,0.00,,,0.00,VWS V14.00,2013-02-23 18:48:00,
2013-02-23 13:53:00,32.2,23.2,29.66,SSW,207,3.6,3.6,69,0.00,,,0.00,VWS V14.00,2013-02-23 18:53:00,
2013-02-23 13:59:00,32.2,23.2,29.66,SW,225,12.8,12.8,69,0.00,,,0.00,VWS V14.00,2013-02-23 18:59:00,
2013-02-23 14:04:00,32.0,23.0,29.66,SW,236,5.4,6.3,69,0.00,,,0.00,VWS V14.00,2013-02-23 19:04:00,
2013-02-23 14:09:00,32.0,23.3,29.66,SSW,213,7.6,10.5,70,0.00,,,0.00,VWS V14.00,2013-02-23 19:09:00,
2013-02-23 14:14:00,32.0,23.3,29.66,SW,217,5.8,8.3,70,0.00,,,0.00,VWS V14.00,2013-02-23 19:14:00,
2013-02-23 14:19:00,31.8,23.2,29.66,SW,224,8.3,8.3,70,0.00,,,0.00,VWS V14.00,2013-02-23 19:19:00,
2013-02-23 14:25:00,31.5,23.2,29.66,West,265,6.3,6.3,71,0.00,,,0.00,VWS V14.00,2013-02-23 19:25:00,
2013-02-23 14:30:00,31.3,23.0,29.66,SW,219,6.3,6.3,71,0.00,,,0.00,VWS V14.00,2013-02-23 19:30:00,
2013-02-23 14:35:00,31.1,23.1,29.66,SW,230,5.4,5.4,72,0.00,,,0.00,VWS V14.00,2013-02-23 19:35:00,
2013-02-23 14:40:00,31.1,23.1,29.66,SSW,202,8.1,8.1,72,0.00,,,0.00,VWS V14.00,2013-02-23 19:40:00,
2013-02-23 14:46:00,31.1,23.1,29.66,SW,220,6.3,6.3,72,0.00,,,0.00,VWS V14.00,2013-02-23 19:46:00,
2013-02-23 14:51:00,31.1,23.5,29.66,SSW,203,10.1,10.1,73,0.00,,,0.00,VWS V14.00,2013-02-23 19:51:00,
2013-02-23 14:56:00,31.1,23.8,29.66,SSW,196,5.4,5.4,74,0.00,,,0.00,VWS V14.00,2013-02-23 19:56:00,
2013-02-23 15:01:00,31.6,24.3,29.66,SW,219,3.6,3.6,74,0.00,,,0.00,VWS V14.00,2013-02-23 20:01:00,
2013-02-23 15:07:00,31.6,24.3,29.66,SSW,213,4.9,4.9,74,0.00,,,0.00,VWS V14.00,2013-02-23 20:07:00,
2013-02-23 15:12:00,31.5,24.1,29.66,WNW,282,6.3,6.3,74,0.00,,,0.00,VWS V14.00,2013-02-23 20:12:00,
2013-02-23 15:17:00,31.1,23.8,29.66,WSW,244,6.3,6.3,74,0.00,,,0.00,VWS V14.00,2013-02-23 20:17:00,
2013-02-23 15:22:00,31.1,23.8,29.66,SSW,213,7.6,7.6,74,0.00,,,0.00,VWS V14.00,2013-02-23 20:22:00,
2013-02-23 15:28:00,30.6,23.6,29.66,SSW,196,4.0,4.0,75,0.00,,,0.00,VWS V14.00,2013-02-23 20:28:00,
2013-02-23 15:34:00,30.6,23.6,29.66,SSW,212,3.6,5.8,75,0.00,,,0.00,VWS V14.00,2013-02-23 20:34:00,
2013-02-23 15:39:00,30.6,23.9,29.66,SSW,199,4.9,4.9,76,0.00,,,0.00,VWS V14.00,2013-02-23 20:39:00,
2013-02-23 15:44:00,30.7,24.1,29.66,SW,229,5.8,5.8,76,0.00,,,0.00,VWS V14.00,2013-02-23 20:44:00,
2013-02-23 15:49:00,30.7,24.4,29.66,SW,231,4.0,5.4,77,0.00,,,0.00,VWS V14.00,2013-02-23 20:49:00,
2013-02-23 15:54:00,30.6,24.2,29.66,SSW,196,8.7,8.7,77,0.00,,,0.00,VWS V14.00,2013-02-23 20:54:00,
2013-02-23 15:59:00,30.4,24.0,29.66,SW,231,5.8,5.8,77,0.00,,,0.00,VWS V14.00,2013-02-23 20:59:00,
2013-02-23 16:04:00,30.4,24.4,29.66,SSW,210,7.6,7.6,78,0.00,,,0.00,VWS V14.00,2013-02-23 21:04:00,
2013-02-23 16:10:00,30.4,24.4,29.66,SW,224,8.1,8.1,78,0.00,,,0.00,VWS V14.00,2013-02-23 21:10:00,
2013-02-23 16:15:00,30.2,24.2,29.66,SSW,200,4.0,8.1,78,0.00,,,0.00,VWS V14.00,2013-02-23 21:15:00,
2013-02-23 16:20:00,30.2,24.2,29.66,WSW,246,8.3,8.3,78,0.00,,,0.00,VWS V14.00,2013-02-23 21:20:00,
2013-02-23 16:25:00,30.2,24.2,29.66,WSW,249,8.3,8.3,78,0.00,,,0.00,VWS V14.00,2013-02-23 21:25:00,
2013-02-23 16:31:00,30.2,24.2,29.66,SW,223,4.9,4.9,78,0.00,,,0.00,VWS V14.00,2013-02-23 21:31:00,
2013-02-23 16:36:00,30.0,24.0,29.66,SSW,209,4.0,5.8,78,0.00,,,0.00,VWS V14.00,2013-02-23 21:36:00,
2013-02-23 16:41:00,30.0,24.0,29.66,South,184,8.7,8.7,78,0.00,,,0.00,VWS V14.00,2013-02-23 21:41:00,
2013-02-23 16:46:00,30.0,24.0,29.66,SSW,209,5.8,5.8,78,0.00,,,0.00,VWS V14.00,2013-02-23 21:46:00,
2013-02-23 16:52:00,29.8,23.8,29.66,SW,224,5.8,5.8,78,0.00,,,0.00,VWS V14.00,2013-02-23 21:52:00,
2013-02-23 16:57:00,29.7,23.6,29.66,SSE,163,6.3,6.3,78,0.00,,,0.00,VWS V14.00,2013-02-23 21:57:00,
2013-02-23 17:02:00,29.7,23.6,29.66,SSW,203,5.8,5.8,78,0.00,,,0.00,VWS V14.00,2013-02-23 22:02:00,
2013-02-23 17:07:00,29.5,23.5,29.66,SW,236,5.4,5.4,78,0.00,,,0.00,VWS V14.00,2013-02-23 22:07:00,
2013-02-23 17:13:00,29.5,23.5,29.66,SSW,208,5.8,5.8,78,0.00,,,0.00,VWS V14.00,2013-02-23 22:13:00,
2013-02-23 17:19:00,29.3,23.3,29.66,SW,218,5.8,5.8,78,0.00,,,0.00,VWS V14.00,2013-02-23 22:19:00,
2013-02-23 17:24:00,29.3,23.3,29.66,SW,218,5.8,5.8,78,0.00,,,0.00,VWS V14.00,2013-02-23 22:24:00,
2013-02-23 17:29:00,28.9,23.0,29.66,SSW,210,6.3,6.3,78,0.00,,,0.00,VWS V14.00,2013-02-23 22:29:00,
2013-02-23 17:35:00,28.8,23.1,29.66,SSW,210,6.3,6.3,79,0.00,,,0.00,VWS V14.00,2013-02-23 22:35:00,
2013-02-23 17:41:00,28.8,23.1,29.66,SSW,202,3.6,3.6,79,0.00,,,0.00,VWS V14.00,2013-02-23 22:41:00,
2013-02-23 17:46:00,28.6,22.9,29.66,SSW,202,6.3,6.3,79,0.00,,,0.00,VWS V14.00,2013-02-23 22:46:00,
2013-02-23 17:51:00,28.6,22.9,29.66,SSW,206,5.4,5.4,79,0.00,,,0.00,VWS V14.00,2013-02-23 22:51:00,
2013-02-23 17:56:00,28.4,23.0,29.66,SSW,192,3.6,4.9,80,0.00,,,0.00,VWS V14.00,2013-02-23 22:56:00,
2013-02-23 18:02:00,28.4,23.0,29.66,SSW,210,5.8,5.8,80,0.00,,,0.00,VWS V14.00,2013-02-23 23:02:00,
2013-02-23 18:08:00,28.4,23.0,29.66,WSW,244,5.8,5.8,80,0.00,,,0.00,VWS V14.00,2013-02-23 23:08:00,
2013-02-23 18:13:00,28.2,23.1,29.69,SW,222,3.6,5.4,81,0.00,,,0.00,VWS V14.00,2013-02-23 23:13:00,
2013-02-23 18:18:00,28.2,23.1,29.69,SW,219,4.9,6.3,81,0.00,,,0.00,VWS V14.00,2013-02-23 23:18:00,
2013-02-23 18:24:00,28.0,23.3,29.69,SSW,202,3.6,3.6,82,0.00,,,0.00,VWS V14.00,2013-02-23 23:24:00,
2013-02-23 18:29:00,28.0,23.3,29.69,SW,218,2.7,5.4,82,0.00,,,0.00,VWS V14.00,2013-02-23 23:29:00,
2013-02-23 18:34:00,27.9,23.1,29.69,SSW,207,4.0,4.0,82,0.00,,,0.00,VWS V14.00,2013-02-23 23:34:00,
2013-02-23 18:39:00,27.9,23.4,29.69,SSW,202,3.6,4.0,83,0.00,,,0.00,VWS V14.00,2013-02-23 23:39:00,
2013-02-23 18:45:00,27.9,23.4,29.69,SSW,202,3.1,4.9,83,0.00,,,0.00,VWS V14.00,2013-02-23 23:45:00,
2013-02-23 18:50:00,27.9,23.4,29.69,South,184,3.1,3.1,83,0.00,,,0.00,VWS V14.00,2013-02-23 23:50:00,
2013-02-23 18:55:00,27.7,23.5,29.69,South,189,3.6,3.6,84,0.00,,,0.00,VWS V14.00,2013-02-23 23:55:00,
2013-02-23 19:01:00,27.7,23.5,29.69,SSW,197,3.1,3.6,84,0.00,,,0.00,VWS V14.00,2013-02-24 00:01:00,
2013-02-23 19:06:00,27.7,23.5,29.69,South,191,3.1,4.0,84,0.00,,,0.00,VWS V14.00,2013-02-24 00:06:00,
2013-02-23 19:12:00,27.5,23.6,29.69,SSW,192,3.1,3.1,85,0.00,,,0.00,VWS V14.00,2013-02-24 00:12:00,
2013-02-23 19:17:00,27.5,23.6,29.69,South,190,2.7,2.7,85,0.00,,,0.00,VWS V14.00,2013-02-24 00:17:00,
2013-02-23 19:23:00,27.3,23.7,29.69,South,184,3.1,3.1,86,0.00,,,0.00,VWS V14.00,2013-02-24 00:23:00,
2013-02-23 19:29:00,27.3,23.7,29.69,SSW,200,3.1,3.1,86,0.00,,,0.00,VWS V14.00,2013-02-24 00:29:00,
2013-02-23 19:34:00,27.3,23.7,29.69,SSW,196,3.6,3.6,86,0.00,,,0.00,VWS V14.00,2013-02-24 00:34:00,
2013-02-23 19:39:00,27.1,23.8,29.69,SSW,195,0.0,2.7,87,0.00,,,0.00,VWS V14.00,2013-02-24 00:39:00,
2013-02-23 19:44:00,27.1,23.8,29.69,SSW,195,0.0,0.0,87,0.00,,,0.00,VWS V14.00,2013-02-24 00:44:00,
2013-02-23 19:49:00,27.1,23.8,29.69,SSW,195,3.1,3.1,87,0.00,,,0.00,VWS V14.00,2013-02-24 00:49:00,
2013-02-23 19:55:00,27.1,23.8,29.69,SSW,195,0.0,0.0,87,0.00,,,0.00,VWS V14.00,2013-02-24 00:55:00,
2013-02-23 20:01:00,27.0,23.6,29.69,SSW,195,3.1,3.1,87,0.00,,,0.00,VWS V14.00,2013-02-24 01:01:00,
2013-02-23 20:06:00,27.0,23.6,29.69,SSW,200,2.7,2.7,87,0.00,,,0.00,VWS V14.00,2013-02-24 01:06:00,
2013-02-23 20:11:00,27.0,23.6,29.69,SSW,209,3.1,3.1,87,0.00,,,0.00,VWS V14.00,2013-02-24 01:11:00,
2013-02-23 20:16:00,27.0,23.6,29.69,SSW,203,3.1,3.1,87,0.00,,,0.00,VWS V14.00,2013-02-24 01:16:00,
2013-02-23 20:21:00,27.0,23.6,29.69,SSW,212,4.9,4.9,87,0.00,,,0.00,VWS V14.00,2013-02-24 01:21:00,
2013-02-23 20:26:00,26.8,23.4,29.69,SSW,196,3.6,5.4,87,0.00,,,0.00,VWS V14.00,2013-02-24 01:26:00,
2013-02-23 20:32:00,26.8,23.7,29.69,SSW,196,2.7,3.1,88,0.00,,,0.00,VWS V14.00,2013-02-24 01:32:00,
2013-02-23 20:37:00,26.8,23.7,29.69,South,191,4.0,5.8,88,0.00,,,0.00,VWS V14.00,2013-02-24 01:37:00,
2013-02-23 20:42:00,26.8,23.7,29.69,SSW,192,4.0,4.0,88,0.00,,,0.00,VWS V14.00,2013-02-24 01:42:00,
2013-02-23 20:47:00,26.8,23.7,29.69,SSE,161,0.0,0.0,88,0.00,,,0.00,VWS V14.00,2013-02-24 01:47:00,
2013-02-23 20:53:00,26.6,23.8,29.69,South,179,4.0,5.8,89,0.00,,,0.00,VWS V14.00,2013-02-24 01:53:00,
2013-02-23 20:58:00,26.6,23.8,29.69,South,190,3.6,5.4,89,0.00,,,0.00,VWS V14.00,2013-02-24 01:58:00,
2013-02-23 21:04:00,26.6,23.8,29.69,SSW,200,4.9,4.9,89,0.00,,,0.00,VWS V14.00,2013-02-24 02:04:00,
2013-02-23 21:09:00,26.6,23.8,29.69,SSW,205,0.0,4.0,89,0.00,,,0.00,VWS V14.00,2013-02-24 02:09:00,
2013-02-23 21:15:00,26.6,23.8,29.69,SSW,195,3.1,4.0,89,0.00,,,0.00,VWS V14.00,2013-02-24 02:15:00,
2013-02-23 21:20:00,26.6,23.8,29.69,SSW,199,5.8,5.8,89,0.00,,,0.00,VWS V14.00,2013-02-24 02:20:00,
2013-02-23 21:26:00,26.6,23.8,29.69,South,183,3.6,3.6,89,0.00,,,0.00,VWS V14.00,2013-02-24 02:26:00,
2013-02-23 21:32:00,26.6,23.8,29.69,SSW,205,2.7,2.7,89,0.00,,,0.00,VWS V14.00,2013-02-24 02:32:00,
2013-02-23 21:37:00,26.6,23.8,29.69,South,181,4.9,4.9,89,0.00,,,0.00,VWS V14.00,2013-02-24 02:37:00,
2013-02-23 21:43:00,26.4,23.6,29.69,SSW,206,3.6,3.6,89,0.00,,,0.00,VWS V14.00,2013-02-24 02:43:00,
2013-02-23 21:49:00,26.4,23.6,29.69,SSW,203,4.9,4.9,89,0.00,,,0.00,VWS V14.00,2013-02-24 02:49:00,
2013-02-23 21:54:00,26.4,23.6,29.69,SSW,204,3.1,3.1,89,0.00,,,0.00,VWS V14.00,2013-02-24 02:54:00,
2013-02-23 22:00:00,26.4,23.4,29.69,SSW,198,3.6,3.6,88,0.00,,,0.00,VWS V14.00,2013-02-24 03:00:00,
2013-02-23 22:05:00,26.4,23.4,29.69,SSW,207,4.0,4.0,88,0.00,,,0.00,VWS V14.00,2013-02-24 03:05:00,
2013-02-23 22:10:00,26.4,23.4,29.69,SSW,206,4.0,4.0,88,0.00,,,0.00,VWS V14.00,2013-02-24 03:10:00,
2013-02-23 22:15:00,26.4,23.4,29.69,SSW,202,2.7,4.9,88,0.00,,,0.00,VWS V14.00,2013-02-24 03:15:00,
2013-02-23 22:20:00,26.4,23.4,29.69,SSW,199,4.0,5.4,88,0.00,,,0.00,VWS V14.00,2013-02-24 03:20:00,
2013-02-23 22:25:00,26.2,22.9,29.69,SSW,210,4.0,4.0,87,0.00,,,0.00,VWS V14.00,2013-02-24 03:25:00,
2013-02-23 22:31:00,26.2,22.9,29.69,South,187,3.1,3.6,87,0.00,,,0.00,VWS V14.00,2013-02-24 03:31:00,
2013-02-23 22:36:00,26.2,22.9,29.69,SSW,204,3.6,5.8,87,0.00,,,0.00,VWS V14.00,2013-02-24 03:36:00,
2013-02-23 22:41:00,26.2,22.9,29.69,SSW,197,5.8,5.8,87,0.00,,,0.00,VWS V14.00,2013-02-24 03:41:00,
2013-02-23 22:46:00,26.2,22.9,29.69,SSW,202,0.0,0.0,87,0.00,,,0.00,VWS V14.00,2013-02-24 03:46:00,
2013-02-23 22:52:00,26.1,22.7,29.69,SSW,199,3.6,3.6,87,0.00,,,0.00,VWS V14.00,2013-02-24 03:52:00,
2013-02-23 22:57:00,26.1,22.7,29.69,SSW,194,2.7,2.7,87,0.00,,,0.00,VWS V14.00,2013-02-24 03:57:00,
2013-02-23 23:02:00,26.1,22.7,29.69,SSW,202,5.4,5.4,87,0.00,,,0.00,VWS V14.00,2013-02-24 04:02:00,
2013-02-23 23:07:00,26.1,22.7,29.69,SSW,202,2.7,3.6,87,0.00,,,0.00,VWS V14.00,2013-02-24 04:07:00,
2013-02-23 23:12:00,26.1,22.7,29.69,SSW,202,2.7,3.1,87,0.00,,,0.00,VWS V14.00,2013-02-24 04:12:00,
2013-02-23 23:18:00,26.1,22.7,29.69,SSW,202,3.6,3.6,87,0.00,,,0.00,VWS V14.00,2013-02-24 04:18:00,
2013-02-23 23:24:00,26.1,22.7,29.69,SSW,202,3.1,3.1,87,0.00,,,0.00,VWS V14.00,2013-02-24 04:24:00,
2013-02-23 23:29:00,26.1,22.7,29.69,SSW,202,0.0,2.7,87,0.00,,,0.00,VWS V14.00,2013-02-24 04:29:00,
2013-02-23 23:35:00,26.1,22.7,29.69,SSW,201,0.0,0.0,87,0.00,,,0.00,VWS V14.00,2013-02-24 04:35:00,
2013-02-23 23:40:00,26.2,22.9,29.69,SSW,204,4.0,4.0,87,0.00,,,0.00,VWS V14.00,2013-02-24 04:40:00,
2013-02-23 23:46:00,26.2,22.9,29.69,SSW,204,3.1,3.1,87,0.00,,,0.00,VWS V14.00,2013-02-24 04:46:00,
2013-02-23 23:51:00,26.4,23.1,29.69,WSW,254,4.0,4.0,87,0.00,,,0.00,VWS V14.00,2013-02-24 04:51:00,
2013-02-23 23:57:00,26.4,23.1,29.69,SW,215,4.0,4.0,87,0.00,,,0.00,VWS V14.00,2013-02-24 04:57:00,